Flight Track Log - Related Links

Times and Time Zones

All times are in EST time to prevent confusion due to time zone crossing. See the N830QS flight status page for this flight to view local times or setup timezone preferences in your user account.

Time Position Orientation Groundspeed Altitude Reporting Facility
EST Latitude Longitude Course Direction KTS MPH feet Rate Location/Type
Thu 10:02:33 AM 39.6389 -106.9369 110° East 184 212 7,800  Level Denver Center
Thu 10:03:34 AM 39.6017 -107.0078 236° Southwest 208 239 12,800 3,422 Climbing Denver Center
Thu 10:04:48 AM 39.6589 -107.0414 336° Northwest 254 292 15,500 2,133 Climbing Denver Center
Thu 10:05:49 AM 39.6964 -106.9372 65° Northeast 329 379 17,600 2,390 Climbing Denver Center
Thu 10:06:51 AM 39.7056 -106.8081 85° East 352 405 20,400 2,683 Climbing Denver Center
Thu 10:07:00 AM 39.9561 -106.2214 110° East  Level FlightAware Approximate
Thu 10:07:52 AM 39.7069 -106.6789 89° East 354 407 23,100  Level Denver Center
Thu 10:08:54 AM 39.7069 -106.5406 90° East 376 433 24,700 1,610 Climbing Denver Center
Thu 10:09:55 AM 39.7067 -106.3797 90° East 399 459 26,400 1,377 Climbing Denver Center
Thu 10:10:56 AM 39.7067 -106.2614 90° East 408 470 27,500 1,415 Climbing Denver Center
Thu 10:11:58 AM 39.7075 -106.0836 90° East 410 472 29,300 1,463 Climbing Denver Center
Thu 10:12:59 AM 39.7064 -105.9647 91° East 412 474 30,500 1,463 Climbing Denver Center
Thu 10:14:01 AM 39.7042 -105.7867 91° East 411 473 32,300 1,597 Climbing Denver Center
Thu 10:15:03 AM 39.7025 -105.6361 91° East 416 479 33,800 1,512 Climbing Denver Center
Thu 10:16:04 AM 39.7006 -105.4581 91° East 414 476 35,400 1,268 Climbing Denver Center
Thu 10:17:06 AM 39.7000 -105.3042 90° East 424 488 36,400 919 Climbing Denver Center
Thu 10:18:08 AM 39.6978 -105.1483 91° East 430 495 37,300 878 Climbing Denver Center
Thu 10:19:09 AM 39.6950 -104.9939 91° East 429 494 38,200 878 Climbing Denver Center
Thu 10:20:11 AM 39.6922 -104.8353 91° East 435 501 39,100 871 Climbing Denver Center
Thu 10:21:13 AM 39.6897 -104.6775 91° East 428 493 40,000 732 Climbing Denver Center
Thu 10:22:14 AM 39.6803 -104.5192 94° East 432 497 40,600 488 Climbing Denver Center
Thu 10:23:16 AM 39.6661 -104.3608 97° East 438 504 41,000 195 Climbing Denver Center
Thu 10:24:17 AM 39.6508 -104.2022 97° East 441 507 41,000  Level Denver Center
Thu 10:25:19 AM 39.6350 -104.0383 97° East 455 524 41,000  Level Denver Center
Thu 10:26:21 AM 39.6194 -103.8703 97° East 468 539 41,000  Level Denver Center
Thu 10:27:23 AM 39.5994 -103.6714 97° East 465 535 41,000  Level Denver Center
Thu 10:28:24 AM 39.5836 -103.5022 97° East 472 543 41,000  Level Denver Center
Thu 10:29:26 AM 39.5664 -103.3347 98° East 471 542 41,000  Level Denver Center
Thu 10:30:28 AM 39.5489 -103.1672 98° East 471 542 41,000  Level Denver Center
Thu 10:31:30 AM 39.5319 -102.9978 97° East 474 545 41,000  Level Denver Center
Thu 10:32:43 AM 39.5131 -102.8300 98° East 472 543 41,000  Level Denver Center
Thu 10:33:46 AM 39.4917 -102.6283 98° East 473 544 41,000  Level Denver Center
Thu 10:34:47 AM 39.4708 -102.4261 98° East 472 543 41,000  Level Denver Center
Thu 10:35:49 AM 39.4544 -102.2758 98° East 472 543 41,000  Level Denver Center
Thu 10:36:51 AM 39.4328 -102.0881 98° East 473 544 41,000  Level Denver Center
Thu 10:37:53 AM 39.4147 -101.9267 98° East 475 547 41,000  Level Denver Center
Thu 10:38:55 AM 39.3931 -101.7397 98° East 473 544 41,000  Level Denver Center
Thu 10:39:57 AM 39.3778 -101.5789 97° East 473 544 41,000  Level Denver Center
Thu 10:40:59 AM 39.3628 -101.3903 96° East 473 544 41,000  Level Denver Center
Thu 10:42:01 AM 39.3486 -101.2297 96° East 472 543 41,000  Level Denver Center
Thu 10:43:02 AM 39.3322 -101.0406 96° East 475 547 41,000  Level Denver Center
Thu 10:44:04 AM 39.3186 -100.8781 96° East 476 548 41,000  Level Denver Center
Thu 10:45:06 AM 39.3008 -100.6883 97° East 477 549 41,000  Level Denver Center
Thu 10:46:08 AM 39.2869 -100.5264 96° East 476 548 41,000  Level Denver Center
Thu 10:47:10 AM 39.2686 -100.3372 97° East 476 548 41,000  Level Denver Center
Thu 10:48:12 AM 39.2528 -100.1742 97° East 479 551 41,000  Level Denver Center
Thu 10:49:14 AM 39.2300 -99.9836 99° East 480 552 41,000  Level Denver Center
Thu 10:50:16 AM 39.2089 -99.8056 99° East 483 556 41,000  Level Denver Center
Thu 10:51:18 AM 39.1883 -99.6414 99° East 483 556 41,000  Level Denver Center
Thu 10:52:32 AM 39.1686 -99.4781 99° East 483 556 41,000  Level Denver Center
Thu 10:53:35 AM 39.1414 -99.2589 99° East 484 557 41,000  Level Denver Center
Thu 10:54:24 AM 39.1228 -99.1053 99° East 486 559 41,000  Level Kansas City Center
Thu 10:55:27 AM 39.0947 -98.9419 102° East 486 559 41,000  Level Kansas City Center
Thu 10:56:28 AM 39.0647 -98.7647 102° East 487 560 41,000  Level Kansas City Center
Thu 10:57:29 AM 39.0367 -98.5889 102° East 483 556 41,000  Level Kansas City Center
Thu 10:58:33 AM 39.0067 -98.4125 102° East 485 558 41,000  Level Kansas City Center
Thu 10:59:34 AM 38.9764 -98.2367 102° East 484 557 41,000  Level Kansas City Center
Thu 11:00:37 AM 38.9458 -98.0586 102° East 487 560 41,000  Level Kansas City Center
Thu 11:01:38 AM 38.9150 -97.8811 103° East 490 564 41,000  Level Kansas City Center
Thu 11:02:41 AM 38.8878 -97.7256 103° East 489 563 41,000  Level Kansas City Center
Thu 11:03:42 AM 38.8547 -97.5350 103° East 489 563 41,000  Level Kansas City Center
Thu 11:04:46 AM 38.8233 -97.3625 103° East 490 564 41,000  Level Kansas City Center
Thu 11:05:46 AM 38.7919 -97.1856 103° East 490 564 41,000  Level Kansas City Center
Thu 11:06:50 AM 38.7597 -97.0094 103° East 488 562 41,000  Level Kansas City Center
Thu 11:07:50 AM 38.7261 -96.8314 104° East 495 570 41,000  Level Kansas City Center
Thu 11:08:51 AM 38.6961 -96.6639 103° East 496 571 41,000  Level Kansas City Center
Thu 11:09:55 AM 38.6647 -96.4994 104° East 498 573 41,000  Level Kansas City Center
Thu 11:10:56 AM 38.6292 -96.3069 103° East 500 575 41,000  Level Kansas City Center
Thu 11:12:00 AM 38.5981 -96.1436 104° East 497 572 41,000  Level Kansas City Center
Thu 11:13:01 AM 38.5619 -95.9506 103° East 500 575 41,000  Level Kansas City Center
Thu 11:14:01 AM 38.5297 -95.7856 104° East 502 578 41,000  Level Kansas City Center
Thu 11:15:05 AM 38.4931 -95.5919 104° East 503 579 41,000  Level Kansas City Center
Thu 11:16:05 AM 38.4608 -95.4269 104° East 502 578 41,000  Level Kansas City Center
Thu 11:17:09 AM 38.4233 -95.2372 104° East 500 575 41,000  Level Kansas City Center
Thu 11:18:09 AM 38.3906 -95.0697 104° East 506 582 41,000  Level Kansas City Center
Thu 11:19:13 AM 38.3511 -94.8747 104° East 510 587 41,000  Level Kansas City Center
Thu 11:20:14 AM 38.3167 -94.7100 105° East 507 583 41,000  Level Kansas City Center
Thu 11:21:17 AM 38.2767 -94.5169 105° East 507 583 41,000  Level Kansas City Center
Thu 11:22:18 AM 38.2533 -94.3475 100° East 506 582 41,000  Level Kansas City Center
Thu 11:23:21 AM 38.2294 -94.1467 99° East 510 587 41,000  Level Kansas City Center
Thu 11:24:22 AM 38.2083 -93.9919 100° East 511 588 41,000  Level Kansas City Center
Thu 11:25:23 AM 38.1819 -93.7753 99° East 513 590 41,000  Level Kansas City Center
Thu 11:26:27 AM 38.1578 -93.5953 100° East 514 592 41,000  Level Kansas City Center
Thu 11:27:29 AM 38.1347 -93.4136 99° East 517 595 41,000  Level Kansas City Center
Thu 11:28:29 AM 38.1119 -93.2325 99° East 518 596 41,000  Level Kansas City Center
Thu 11:29:33 AM 38.0892 -93.0503 99° East 519 597 41,000  Level Kansas City Center
Thu 11:30:35 AM 38.0644 -92.8692 100° East 519 597 41,000  Level Kansas City Center
Thu 11:31:35 AM 38.0381 -92.6833 100° East 520 598 41,000  Level Kansas City Center
Thu 11:32:39 AM 38.0128 -92.5033 100° East 520 598 41,000  Level Kansas City Center
Thu 11:33:40 AM 37.9825 -92.2861 100° East 523 602 41,000  Level Kansas City Center
Thu 11:34:43 AM 37.9572 -92.1078 100° East 521 600 41,000  Level Kansas City Center
Thu 11:35:44 AM 37.9342 -91.9467 100° East 517 595 41,000  Level Kansas City Center
Thu 11:36:45 AM 37.9028 -91.7303 100° East 518 596 41,000  Level Kansas City Center
Thu 11:37:49 AM 37.8772 -91.5492 100° East 520 598 41,000  Level Kansas City Center
Thu 11:38:50 AM 37.8503 -91.3686 101° East 520 598 41,000  Level Kansas City Center
Thu 11:39:53 AM 37.8225 -91.1872 101° East 521 600 41,000  Level Kansas City Center
Thu 11:40:55 AM 37.7919 -90.9981 101° East 524 603 41,000  Level Kansas City Center
Thu 11:41:57 AM 37.7653 -90.8178 101° East 524 603 41,000  Level Kansas City Center
Thu 11:43:00 AM 37.7372 -90.6394 101° East 523 602 41,000  Level Kansas City Center
Thu 11:44:01 AM 37.7086 -90.4586 101° East 527 606 41,000  Level Kansas City Center
Thu 11:45:02 AM 37.6714 -90.2456 102° East 523 602 41,000  Level Kansas City Center
Thu 11:46:05 AM 37.6097 -90.0836 116° Southeast 517 595 41,000  Level Kansas City Center
Thu 11:47:07 AM 37.5450 -89.9242 117° Southeast 516 594 41,000  Level Kansas City Center
Thu 11:48:07 AM 37.4789 -89.7636 117° Southeast 515 593 41,000  Level Kansas City Center
Thu 11:49:11 AM 37.4128 -89.6050 118° Southeast 513 590 41,000  Level Kansas City Center
Thu 11:50:12 AM 37.3461 -89.4478 118° Southeast 511 588 41,000  Level Kansas City Center
Thu 11:50:56 AM 37.2931 -89.3181 117° Southeast 512 589 41,000  Level Memphis Center
Thu 11:51:58 AM 37.2264 -89.1600 118° Southeast 510 587 41,000  Level Memphis Center
Thu 11:53:00 AM 37.1592 -89.0025 118° Southeast 510 587 41,000  Level Memphis Center
Thu 11:54:02 AM 37.0783 -88.8131 118° Southeast 510 587 41,000  Level Memphis Center
Thu 11:55:04 AM 37.0106 -88.6569 118° Southeast 509 586 41,000  Level Memphis Center
Thu 11:56:06 AM 36.9444 -88.5019 118° Southeast 505 581 41,000  Level Memphis Center
Thu 11:57:08 AM 36.8775 -88.3461 118° Southeast 505 581 41,000  Level Memphis Center
Thu 11:58:10 AM 36.8108 -88.1933 119° Southeast 503 579 41,000  Level Memphis Center
Thu 11:59:12 AM 36.7414 -88.0364 119° Southeast 501 577 41,000  Level Memphis Center
Thu 12:00:16 PM 36.6631 -87.8569 119° Southeast 501 577 41,000 -95 Level Memphis Center
Thu 12:01:18 PM 36.5956 -87.7044 119° Southeast 501 577 40,800 -726 Descending Memphis Center
Thu 12:02:20 PM 36.5258 -87.5464 119° Southeast 512 589 39,500 -1,016 Descending Memphis Center
Thu 12:03:22 PM 36.4539 -87.3853 119° Southeast 525 604 38,700 -823 Descending Memphis Center
Thu 12:04:24 PM 36.3850 -87.2328 119° Southeast 510 587 37,800 -774 Descending Memphis Center
Thu 12:05:26 PM 36.3178 -87.0836 119° Southeast 498 573 37,100 -823 Descending Memphis Center
Thu 12:06:28 PM 36.2383 -86.9064 119° Southeast 510 587 36,100 -871 Descending Memphis Center
Thu 12:07:30 PM 36.1664 -86.7514 120° Southeast 522 601 35,300 -528 Descending Memphis Center
Thu 12:08:33 PM 36.0808 -86.6114 127° Southeast 507 583 35,000 -144 Descending Memphis Center
Thu 12:09:35 PM 35.9872 -86.4864 133° Southeast 493 567 35,000 -435 Level Memphis Center
Thu 12:10:37 PM 35.8908 -86.3594 133° Southeast 499 574 34,100 -1,403 Descending Memphis Center
Thu 12:11:39 PM 35.7822 -86.2167 133° Southeast 488 562 32,100 -1,500 Descending Memphis Center
Thu 12:12:41 PM 35.6894 -86.0953 133° Southeast 483 556 31,000 -532 Descending Memphis Center
Thu 12:13:43 PM 35.5969 -85.9744 133° Southeast 492 566 31,000 -194 Level Memphis Center
Thu 12:14:45 PM 35.5006 -85.8478 133° Southeast 503 579 30,600 -1,258 Descending Memphis Center
Thu 12:15:47 PM 35.4094 -85.7292 133° Southeast 490 564 28,400 -2,903 Descending Memphis Center
Thu 12:16:49 PM 35.3250 -85.6197 133° Southeast 457 526 24,600 -4,161 Descending Memphis Center
Thu 12:17:51 PM 35.2236 -85.4989 136° Southeast 431 496 19,800 -4,128 Descending Memphis Center
Thu 12:18:54 PM 35.1306 -85.4217 146° Southeast 387 445 16,000 -3,648 Descending Memphis Center
Thu 12:19:56 PM 35.0539 -85.3569 145° Southeast 369 425 12,200 -3,774 Descending Memphis Center
Thu 12:20:58 PM 34.9769 -85.3067 152° Southeast 325 374 8,200 -3,581 Descending Memphis Center
Thu 12:22:00 PM 34.9033 -85.2756 161° South 295 339 4,800 -2,855 Descending Memphis Center
Thu 12:23:02 PM 34.9172 -85.2031 77° East 262 302 2,300 -1,355 Descending Memphis Center
Thu 12:24:04 PM 34.9619 -85.2203 342° North 200 230 2,000 -435 Descending Memphis Center
Thu 12:25:06 PM 34.9972 -85.2222 357° North 159 183 1,400 -484 Descending Memphis Center
Thu 12:26:08 PM 35.0289 -85.2119 15° North 134 154 1,000 -387 Descending Memphis Center

Login

Don't have an account? Register now (free) for customized features, flight alerts, and more!